sensor_id;sensor_type;location;lat;lon;timestamp;P1;durP1;ratioP1;P2;durP2;ratioP2
52554;SDS011;38455;52.710;6.502;2022-12-10T00:01:49;67.35;;;27.75;;
52554;SDS011;38455;52.710;6.502;2022-12-10T00:04:17;67.93;;;27.42;;
52554;SDS011;38455;52.710;6.502;2022-12-10T00:06:43;72.22;;;28.15;;
52554;SDS011;38455;52.710;6.502;2022-12-10T00:09:10;72.07;;;29.50;;
52554;SDS011;38455;52.710;6.502;2022-12-10T00:11:38;72.32;;;30.38;;
52554;SDS011;38455;52.710;6.502;2022-12-10T00:14:04;66.25;;;27.92;;
52554;SDS011;38455;52.710;6.502;2022-12-10T00:16:32;72.78;;;31.05;;
52554;SDS011;38455;52.710;6.502;2022-12-10T00:18:58;68.45;;;29.88;;
52554;SDS011;38455;52.710;6.502;2022-12-10T00:21:31;65.97;;;26.48;;
52554;SDS011;38455;52.710;6.502;2022-12-10T00:23:58;74.75;;;28.60;;
52554;SDS011;38455;52.710;6.502;2022-12-10T00:26:26;64.63;;;28.50;;
52554;SDS011;38455;52.710;6.502;2022-12-10T00:29:03;70.75;;;29.60;;
52554;SDS011;38455;52.710;6.502;2022-12-10T00:31:32;66.88;;;27.77;;
52554;SDS011;38455;52.710;6.502;2022-12-10T00:34:00;80.38;;;30.55;;
52554;SDS011;38455;52.710;6.502;2022-12-10T00:36:28;69.95;;;28.92;;
52554;SDS011;38455;52.710;6.502;2022-12-10T00:38:55;70.47;;;28.60;;
52554;SDS011;38455;52.710;6.502;2022-12-10T00:41:21;66.60;;;27.80;;
52554;SDS011;38455;52.710;6.502;2022-12-10T00:43:47;75.70;;;31.73;;
52554;SDS011;38455;52.710;6.502;2022-12-10T00:46:14;75.20;;;28.58;;
52554;SDS011;38455;52.710;6.502;2022-12-10T00:48:41;68.97;;;29.73;;
52554;SDS011;38455;52.710;6.502;2022-12-10T00:51:11;71.95;;;29.13;;
52554;SDS011;38455;52.710;6.502;2022-12-10T00:53:39;77.57;;;30.17;;
52554;SDS011;38455;52.710;6.502;2022-12-10T00:56:06;72.18;;;29.80;;
52554;SDS011;38455;52.710;6.502;2022-12-10T00:58:34;79.78;;;29.17;;
52554;SDS011;38455;52.710;6.502;2022-12-10T01:01:17;72.13;;;29.15;;
52554;SDS011;38455;52.710;6.502;2022-12-10T01:03:46;71.93;;;30.00;;
52554;SDS011;38455;52.710;6.502;2022-12-10T01:06:15;66.85;;;27.90;;
52554;SDS011;38455;52.710;6.502;2022-12-10T01:08:46;78.75;;;29.33;;
52554;SDS011;38455;52.710;6.502;2022-12-10T01:11:13;78.15;;;30.27;;
52554;SDS011;38455;52.710;6.502;2022-12-10T01:13:40;76.70;;;30.10;;
52554;SDS011;38455;52.710;6.502;2022-12-10T01:16:07;65.25;;;26.98;;
52554;SDS011;38455;52.710;6.502;2022-12-10T01:18:34;71.75;;;31.58;;
52554;SDS011;38455;52.710;6.502;2022-12-10T01:21:04;72.10;;;29.42;;
52554;SDS011;38455;52.710;6.502;2022-12-10T01:23:34;68.25;;;28.33;;
52554;SDS011;38455;52.710;6.502;2022-12-10T01:26:05;73.55;;;28.80;;
52554;SDS011;38455;52.710;6.502;2022-12-10T01:28:33;72.93;;;29.48;;
52554;SDS011;38455;52.710;6.502;2022-12-10T01:31:01;75.75;;;29.00;;
52554;SDS011;38455;52.710;6.502;2022-12-10T01:33:31;75.97;;;31.08;;
52554;SDS011;38455;52.710;6.502;2022-12-10T01:36:02;75.00;;;29.75;;
52554;SDS011;38455;52.710;6.502;2022-12-10T01:38:39;76.55;;;29.90;;
52554;SDS011;38455;52.710;6.502;2022-12-10T01:41:05;80.22;;;30.00;;
52554;SDS011;38455;52.710;6.502;2022-12-10T01:43:49;72.57;;;30.38;;
52554;SDS011;38455;52.710;6.502;2022-12-10T01:46:31;78.50;;;29.60;;
52554;SDS011;38455;52.710;6.502;2022-12-10T01:48:59;75.32;;;29.65;;
52554;SDS011;38455;52.710;6.502;2022-12-10T01:51:27;74.38;;;29.90;;
52554;SDS011;38455;52.710;6.502;2022-12-10T01:53:54;82.55;;;31.55;;
52554;SDS011;38455;52.710;6.502;2022-12-10T01:56:21;84.20;;;30.55;;
52554;SDS011;38455;52.710;6.502;2022-12-10T01:58:48;87.32;;;33.33;;
52554;SDS011;38455;52.710;6.502;2022-12-10T02:01:21;83.43;;;30.55;;
52554;SDS011;38455;52.710;6.502;2022-12-10T02:06:50;89.65;;;31.25;;
52554;SDS011;38455;52.710;6.502;2022-12-10T02:09:20;79.68;;;32.45;;
52554;SDS011;38455;52.710;6.502;2022-12-10T02:20:15;89.20;;;32.13;;
52554;SDS011;38455;52.710;6.502;2022-12-10T02:22:48;78.85;;;32.28;;
52554;SDS011;38455;52.710;6.502;2022-12-10T02:25:24;86.70;;;32.22;;
52554;SDS011;38455;52.710;6.502;2022-12-10T02:30:56;81.15;;;31.35;;
52554;SDS011;38455;52.710;6.502;2022-12-10T02:33:22;76.90;;;29.73;;
52554;SDS011;38455;52.710;6.502;2022-12-10T02:35:51;84.15;;;32.17;;
52554;SDS011;38455;52.710;6.502;2022-12-10T02:38:29;86.80;;;31.73;;
52554;SDS011;38455;52.710;6.502;2022-12-10T02:41:01;86.78;;;32.20;;
52554;SDS011;38455;52.710;6.502;2022-12-10T02:43:30;84.68;;;32.58;;
52554;SDS011;38455;52.710;6.502;2022-12-10T02:45:58;89.18;;;32.55;;
52554;SDS011;38455;52.710;6.502;2022-12-10T02:48:27;90.45;;;35.25;;
52554;SDS011;38455;52.710;6.502;2022-12-10T02:50:53;83.20;;;32.75;;
52554;SDS011;38455;52.710;6.502;2022-12-10T02:53:18;85.45;;;32.00;;
52554;SDS011;38455;52.710;6.502;2022-12-10T02:59:06;89.80;;;34.65;;
52554;SDS011;38455;52.710;6.502;2022-12-10T03:01:50;90.05;;;32.20;;
52554;SDS011;38455;52.710;6.502;2022-12-10T03:07:04;91.13;;;32.38;;
52554;SDS011;38455;52.710;6.502;2022-12-10T03:09:35;87.45;;;33.58;;
52554;SDS011;38455;52.710;6.502;2022-12-10T03:12:07;77.90;;;30.45;;
52554;SDS011;38455;52.710;6.502;2022-12-10T03:15:01;79.75;;;31.80;;
52554;SDS011;38455;52.710;6.502;2022-12-10T03:17:30;79.95;;;30.10;;
52554;SDS011;38455;52.710;6.502;2022-12-10T03:19:57;88.53;;;33.15;;
52554;SDS011;38455;52.710;6.502;2022-12-10T03:22:25;82.75;;;30.60;;
52554;SDS011;38455;52.710;6.502;2022-12-10T03:24:51;84.50;;;33.17;;
52554;SDS011;38455;52.710;6.502;2022-12-10T03:27:19;90.10;;;31.55;;
52554;SDS011;38455;52.710;6.502;2022-12-10T03:29:48;80.65;;;31.20;;
52554;SDS011;38455;52.710;6.502;2022-12-10T03:32:16;88.30;;;33.65;;
52554;SDS011;38455;52.710;6.502;2022-12-10T03:34:46;96.70;;;35.13;;
52554;SDS011;38455;52.710;6.502;2022-12-10T03:37:13;84.20;;;32.67;;
52554;SDS011;38455;52.710;6.502;2022-12-10T03:39:38;87.53;;;33.70;;
52554;SDS011;38455;52.710;6.502;2022-12-10T03:42:06;87.15;;;33.53;;
52554;SDS011;38455;52.710;6.502;2022-12-10T03:44:33;91.90;;;32.75;;
52554;SDS011;38455;52.710;6.502;2022-12-10T03:47:00;87.57;;;34.28;;
52554;SDS011;38455;52.710;6.502;2022-12-10T03:49:28;87.03;;;32.67;;
52554;SDS011;38455;52.710;6.502;2022-12-10T03:51:53;85.43;;;32.80;;
52554;SDS011;38455;52.710;6.502;2022-12-10T03:54:19;91.65;;;34.95;;
52554;SDS011;38455;52.710;6.502;2022-12-10T03:56:45;82.75;;;32.45;;
52554;SDS011;38455;52.710;6.502;2022-12-10T03:59:11;81.03;;;31.08;;
52554;SDS011;38455;52.710;6.502;2022-12-10T04:01:36;88.85;;;33.20;;
52554;SDS011;38455;52.710;6.502;2022-12-10T04:04:03;84.90;;;34.22;;
52554;SDS011;38455;52.710;6.502;2022-12-10T04:06:29;94.82;;;33.60;;
52554;SDS011;38455;52.710;6.502;2022-12-10T04:08:55;84.68;;;31.63;;
52554;SDS011;38455;52.710;6.502;2022-12-10T04:11:21;89.88;;;31.40;;
52554;SDS011;38455;52.710;6.502;2022-12-10T04:13:48;84.10;;;29.60;;
52554;SDS011;38455;52.710;6.502;2022-12-10T04:16:33;95.15;;;33.92;;
52554;SDS011;38455;52.710;6.502;2022-12-10T04:19:03;88.82;;;33.15;;
52554;SDS011;38455;52.710;6.502;2022-12-10T04:21:31;87.47;;;32.67;;
52554;SDS011;38455;52.710;6.502;2022-12-10T04:24:20;87.78;;;31.77;;
52554;SDS011;38455;52.710;6.502;2022-12-10T04:27:08;90.57;;;30.80;;
52554;SDS011;38455;52.710;6.502;2022-12-10T04:29:35;80.18;;;31.35;;
52554;SDS011;38455;52.710;6.502;2022-12-10T04:32:01;90.82;;;32.00;;
52554;SDS011;38455;52.710;6.502;2022-12-10T04:34:27;85.13;;;33.15;;
52554;SDS011;38455;52.710;6.502;2022-12-10T04:36:52;88.07;;;33.53;;
52554;SDS011;38455;52.710;6.502;2022-12-10T04:39:18;92.57;;;36.25;;
52554;SDS011;38455;52.710;6.502;2022-12-10T04:41:45;91.07;;;33.47;;
52554;SDS011;38455;52.710;6.502;2022-12-10T04:44:12;87.78;;;30.70;;
52554;SDS011;38455;52.710;6.502;2022-12-10T04:46:38;92.28;;;32.25;;
52554;SDS011;38455;52.710;6.502;2022-12-10T04:49:04;89.38;;;33.22;;
52554;SDS011;38455;52.710;6.502;2022-12-10T04:51:30;80.10;;;31.70;;
52554;SDS011;38455;52.710;6.502;2022-12-10T04:53:57;95.30;;;32.55;;
52554;SDS011;38455;52.710;6.502;2022-12-10T04:56:23;96.13;;;32.78;;
52554;SDS011;38455;52.710;6.502;2022-12-10T04:58:49;90.00;;;32.22;;
52554;SDS011;38455;52.710;6.502;2022-12-10T05:01:15;95.00;;;33.58;;
52554;SDS011;38455;52.710;6.502;2022-12-10T05:03:43;93.35;;;33.97;;
52554;SDS011;38455;52.710;6.502;2022-12-10T05:06:10;85.97;;;33.45;;
52554;SDS011;38455;52.710;6.502;2022-12-10T05:08:37;88.80;;;32.20;;
52554;SDS011;38455;52.710;6.502;2022-12-10T05:11:05;82.53;;;32.35;;
52554;SDS011;38455;52.710;6.502;2022-12-10T05:13:32;103.53;;;35.55;;
52554;SDS011;38455;52.710;6.502;2022-12-10T05:16:01;83.20;;;33.00;;
52554;SDS011;38455;52.710;6.502;2022-12-10T05:18:27;91.88;;;33.58;;
52554;SDS011;38455;52.710;6.502;2022-12-10T05:20:53;92.07;;;32.78;;
52554;SDS011;38455;52.710;6.502;2022-12-10T05:23:18;86.72;;;33.00;;
52554;SDS011;38455;52.710;6.502;2022-12-10T05:28:30;85.50;;;31.80;;
52554;SDS011;38455;52.710;6.502;2022-12-10T05:30:58;99.47;;;33.03;;
52554;SDS011;38455;52.710;6.502;2022-12-10T05:33:24;92.72;;;33.70;;
52554;SDS011;38455;52.710;6.502;2022-12-10T05:35:55;89.68;;;31.58;;
52554;SDS011;38455;52.710;6.502;2022-12-10T05:38:22;90.82;;;33.13;;
52554;SDS011;38455;52.710;6.502;2022-12-10T05:40:48;91.47;;;33.42;;
52554;SDS011;38455;52.710;6.502;2022-12-10T05:43:14;100.30;;;34.97;;
52554;SDS011;38455;52.710;6.502;2022-12-10T05:45:40;89.00;;;32.88;;
52554;SDS011;38455;52.710;6.502;2022-12-10T05:48:06;86.85;;;32.08;;
52554;SDS011;38455;52.710;6.502;2022-12-10T05:50:33;89.47;;;33.13;;
52554;SDS011;38455;52.710;6.502;2022-12-10T05:52:59;82.50;;;31.63;;
52554;SDS011;38455;52.710;6.502;2022-12-10T05:55:24;90.03;;;33.58;;
52554;SDS011;38455;52.710;6.502;2022-12-10T05:57:52;92.82;;;32.10;;
52554;SDS011;38455;52.710;6.502;2022-12-10T06:00:17;97.35;;;32.38;;
52554;SDS011;38455;52.710;6.502;2022-12-10T06:02:43;91.88;;;33.13;;
52554;SDS011;38455;52.710;6.502;2022-12-10T06:05:09;92.93;;;33.33;;
52554;SDS011;38455;52.710;6.502;2022-12-10T06:07:35;83.68;;;32.40;;
52554;SDS011;38455;52.710;6.502;2022-12-10T06:10:00;83.57;;;31.17;;
52554;SDS011;38455;52.710;6.502;2022-12-10T06:12:26;90.40;;;33.17;;
52554;SDS011;38455;52.710;6.502;2022-12-10T06:14:51;83.90;;;30.85;;
52554;SDS011;38455;52.710;6.502;2022-12-10T06:17:17;83.80;;;31.63;;
52554;SDS011;38455;52.710;6.502;2022-12-10T06:19:42;86.15;;;33.63;;
52554;SDS011;38455;52.710;6.502;2022-12-10T06:22:08;88.28;;;32.28;;
52554;SDS011;38455;52.710;6.502;2022-12-10T06:24:34;95.32;;;32.92;;
52554;SDS011;38455;52.710;6.502;2022-12-10T06:26:59;100.43;;;33.13;;
52554;SDS011;38455;52.710;6.502;2022-12-10T06:29:25;96.68;;;33.45;;
52554;SDS011;38455;52.710;6.502;2022-12-10T06:31:50;91.43;;;33.08;;
52554;SDS011;38455;52.710;6.502;2022-12-10T06:34:16;97.53;;;33.65;;
52554;SDS011;38455;52.710;6.502;2022-12-10T06:36:42;96.25;;;35.95;;
52554;SDS011;38455;52.710;6.502;2022-12-10T06:39:07;100.05;;;34.42;;
52554;SDS011;38455;52.710;6.502;2022-12-10T06:41:33;91.97;;;34.20;;
52554;SDS011;38455;52.710;6.502;2022-12-10T06:43:59;93.07;;;36.60;;
52554;SDS011;38455;52.710;6.502;2022-12-10T06:46:25;95.90;;;34.75;;
52554;SDS011;38455;52.710;6.502;2022-12-10T06:48:52;93.32;;;34.65;;
52554;SDS011;38455;52.710;6.502;2022-12-10T06:51:18;95.88;;;38.00;;
52554;SDS011;38455;52.710;6.502;2022-12-10T06:53:44;98.10;;;36.00;;
52554;SDS011;38455;52.710;6.502;2022-12-10T06:56:17;91.43;;;34.72;;
52554;SDS011;38455;52.710;6.502;2022-12-10T06:58:44;92.18;;;36.17;;
52554;SDS011;38455;52.710;6.502;2022-12-10T07:01:12;91.85;;;34.08;;
52554;SDS011;38455;52.710;6.502;2022-12-10T07:03:39;93.65;;;36.85;;
52554;SDS011;38455;52.710;6.502;2022-12-10T07:06:06;83.10;;;33.67;;
52554;SDS011;38455;52.710;6.502;2022-12-10T07:08:33;97.82;;;33.90;;
52554;SDS011;38455;52.710;6.502;2022-12-10T07:11:02;94.75;;;33.33;;
52554;SDS011;38455;52.710;6.502;2022-12-10T07:13:29;86.00;;;33.38;;
52554;SDS011;38455;52.710;6.502;2022-12-10T07:15:54;92.68;;;34.58;;
52554;SDS011;38455;52.710;6.502;2022-12-10T07:18:20;90.13;;;35.92;;
52554;SDS011;38455;52.710;6.502;2022-12-10T07:20:45;84.40;;;32.00;;
52554;SDS011;38455;52.710;6.502;2022-12-10T07:23:11;83.18;;;31.58;;
52554;SDS011;38455;52.710;6.502;2022-12-10T07:25:37;86.97;;;31.42;;
52554;SDS011;38455;52.710;6.502;2022-12-10T07:28:02;89.28;;;34.75;;
52554;SDS011;38455;52.710;6.502;2022-12-10T07:30:28;94.50;;;33.60;;
52554;SDS011;38455;52.710;6.502;2022-12-10T07:32:54;93.20;;;36.85;;
52554;SDS011;38455;52.710;6.502;2022-12-10T07:35:19;92.80;;;37.08;;
52554;SDS011;38455;52.710;6.502;2022-12-10T07:37:45;88.05;;;34.55;;
52554;SDS011;38455;52.710;6.502;2022-12-10T07:40:11;96.13;;;35.83;;
52554;SDS011;38455;52.710;6.502;2022-12-10T07:42:36;93.80;;;34.30;;
52554;SDS011;38455;52.710;6.502;2022-12-10T07:45:02;82.80;;;34.78;;
52554;SDS011;38455;52.710;6.502;2022-12-10T07:47:28;102.70;;;36.22;;
52554;SDS011;38455;52.710;6.502;2022-12-10T07:49:54;103.53;;;34.80;;
52554;SDS011;38455;52.710;6.502;2022-12-10T07:52:19;99.13;;;34.88;;
52554;SDS011;38455;52.710;6.502;2022-12-10T07:54:45;102.30;;;37.25;;
52554;SDS011;38455;52.710;6.502;2022-12-10T07:57:11;87.40;;;35.35;;
52554;SDS011;38455;52.710;6.502;2022-12-10T07:59:37;91.90;;;36.22;;
52554;SDS011;38455;52.710;6.502;2022-12-10T08:02:02;88.38;;;35.88;;
52554;SDS011;38455;52.710;6.502;2022-12-10T08:04:28;102.88;;;35.30;;
52554;SDS011;38455;52.710;6.502;2022-12-10T08:06:57;95.65;;;36.60;;
52554;SDS011;38455;52.710;6.502;2022-12-10T08:09:23;94.22;;;36.33;;
52554;SDS011;38455;52.710;6.502;2022-12-10T08:11:48;102.30;;;37.40;;
52554;SDS011;38455;52.710;6.502;2022-12-10T08:14:14;95.10;;;36.28;;
52554;SDS011;38455;52.710;6.502;2022-12-10T08:16:40;97.15;;;36.13;;
52554;SDS011;38455;52.710;6.502;2022-12-10T08:19:06;96.82;;;37.22;;
52554;SDS011;38455;52.710;6.502;2022-12-10T08:21:32;98.85;;;39.08;;
52554;SDS011;38455;52.710;6.502;2022-12-10T08:23:58;95.63;;;36.63;;
52554;SDS011;38455;52.710;6.502;2022-12-10T08:26:26;94.45;;;37.25;;
52554;SDS011;38455;52.710;6.502;2022-12-10T08:28:57;103.95;;;37.03;;
52554;SDS011;38455;52.710;6.502;2022-12-10T08:31:24;101.68;;;39.42;;
52554;SDS011;38455;52.710;6.502;2022-12-10T08:33:51;101.68;;;37.88;;
52554;SDS011;38455;52.710;6.502;2022-12-10T08:36:17;92.47;;;35.00;;
52554;SDS011;38455;52.710;6.502;2022-12-10T08:38:44;96.55;;;38.22;;
52554;SDS011;38455;52.710;6.502;2022-12-10T08:43:38;91.45;;;36.72;;
52554;SDS011;38455;52.710;6.502;2022-12-10T08:46:04;98.97;;;39.22;;
52554;SDS011;38455;52.710;6.502;2022-12-10T08:48:30;98.80;;;36.40;;
52554;SDS011;38455;52.710;6.502;2022-12-10T08:50:56;92.50;;;36.50;;
52554;SDS011;38455;52.710;6.502;2022-12-10T08:53:22;92.97;;;35.53;;
52554;SDS011;38455;52.710;6.502;2022-12-10T08:55:52;96.07;;;38.35;;
52554;SDS011;38455;52.710;6.502;2022-12-10T08:58:18;97.20;;;35.90;;
52554;SDS011;38455;52.710;6.502;2022-12-10T09:00:46;93.95;;;34.55;;
52554;SDS011;38455;52.710;6.502;2022-12-10T09:03:12;98.60;;;38.70;;
52554;SDS011;38455;52.710;6.502;2022-12-10T09:05:38;89.63;;;37.38;;
52554;SDS011;38455;52.710;6.502;2022-12-10T09:08:04;97.03;;;36.15;;
52554;SDS011;38455;52.710;6.502;2022-12-10T09:10:29;98.75;;;37.25;;
52554;SDS011;38455;52.710;6.502;2022-12-10T09:12:55;97.95;;;36.03;;
52554;SDS011;38455;52.710;6.502;2022-12-10T09:15:21;98.68;;;37.65;;
52554;SDS011;38455;52.710;6.502;2022-12-10T09:17:46;98.10;;;38.35;;
52554;SDS011;38455;52.710;6.502;2022-12-10T09:20:12;94.75;;;38.72;;
52554;SDS011;38455;52.710;6.502;2022-12-10T09:22:39;96.38;;;38.25;;
52554;SDS011;38455;52.710;6.502;2022-12-10T09:25:06;102.65;;;38.95;;
52554;SDS011;38455;52.710;6.502;2022-12-10T09:27:35;97.40;;;38.15;;
52554;SDS011;38455;52.710;6.502;2022-12-10T09:30:02;110.88;;;40.40;;
52554;SDS011;38455;52.710;6.502;2022-12-10T09:32:29;105.15;;;38.10;;
52554;SDS011;38455;52.710;6.502;2022-12-10T09:34:55;101.68;;;38.20;;
52554;SDS011;38455;52.710;6.502;2022-12-10T09:39:50;103.90;;;39.17;;
52554;SDS011;38455;52.710;6.502;2022-12-10T09:48:01;95.95;;;38.15;;
52554;SDS011;38455;52.710;6.502;2022-12-10T09:50:49;92.80;;;37.63;;
52554;SDS011;38455;52.710;6.502;2022-12-10T09:53:23;103.07;;;39.67;;
52554;SDS011;38455;52.710;6.502;2022-12-10T09:55:51;98.60;;;36.35;;
52554;SDS011;38455;52.710;6.502;2022-12-10T09:58:22;106.93;;;39.50;;
52554;SDS011;38455;52.710;6.502;2022-12-10T10:00:51;103.05;;;39.42;;
52554;SDS011;38455;52.710;6.502;2022-12-10T10:03:22;95.10;;;36.83;;
52554;SDS011;38455;52.710;6.502;2022-12-10T10:05:51;105.35;;;40.47;;
52554;SDS011;38455;52.710;6.502;2022-12-10T10:10:59;110.32;;;39.28;;
52554;SDS011;38455;52.710;6.502;2022-12-10T10:18:41;99.82;;;37.00;;
52554;SDS011;38455;52.710;6.502;2022-12-10T10:21:16;97.45;;;36.63;;
52554;SDS011;38455;52.710;6.502;2022-12-10T10:23:48;98.70;;;36.45;;
52554;SDS011;38455;52.710;6.502;2022-12-10T10:26:14;91.95;;;35.67;;
52554;SDS011;38455;52.710;6.502;2022-12-10T10:28:40;100.18;;;37.13;;
52554;SDS011;38455;52.710;6.502;2022-12-10T10:31:20;103.20;;;36.28;;
52554;SDS011;38455;52.710;6.502;2022-12-10T10:33:50;96.47;;;36.08;;
52554;SDS011;38455;52.710;6.502;2022-12-10T10:36:34;99.28;;;36.47;;
52554;SDS011;38455;52.710;6.502;2022-12-10T10:39:09;100.30;;;36.05;;
52554;SDS011;38455;52.710;6.502;2022-12-10T10:41:37;99.03;;;36.80;;
52554;SDS011;38455;52.710;6.502;2022-12-10T10:44:05;106.28;;;38.20;;
52554;SDS011;38455;52.710;6.502;2022-12-10T10:49:26;97.30;;;35.97;;
52554;SDS011;38455;52.710;6.502;2022-12-10T10:52:06;92.25;;;35.70;;
52554;SDS011;38455;52.710;6.502;2022-12-10T10:54:41;101.95;;;35.95;;
52554;SDS011;38455;52.710;6.502;2022-12-10T10:59:55;89.63;;;34.88;;
52554;SDS011;38455;52.710;6.502;2022-12-10T11:05:07;82.20;;;32.15;;
52554;SDS011;38455;52.710;6.502;2022-12-10T11:07:40;86.00;;;33.22;;
52554;SDS011;38455;52.710;6.502;2022-12-10T11:10:16;84.70;;;32.40;;
52554;SDS011;38455;52.710;6.502;2022-12-10T11:12:53;91.97;;;36.95;;
52554;SDS011;38455;52.710;6.502;2022-12-10T11:17:48;103.28;;;37.25;;
52554;SDS011;38455;52.710;6.502;2022-12-10T11:20:17;113.40;;;37.47;;
52554;SDS011;38455;52.710;6.502;2022-12-10T11:22:58;117.20;;;38.88;;
52554;SDS011;38455;52.710;6.502;2022-12-10T11:28:06;123.35;;;39.78;;
52554;SDS011;38455;52.710;6.502;2022-12-10T11:30:59;120.82;;;38.33;;
52554;SDS011;38455;52.710;6.502;2022-12-10T11:33:37;125.97;;;44.17;;
52554;SDS011;38455;52.710;6.502;2022-12-10T11:36:28;106.72;;;37.50;;
52554;SDS011;38455;52.710;6.502;2022-12-10T11:39:07;121.28;;;40.92;;
52554;SDS011;38455;52.710;6.502;2022-12-10T11:45:08;116.43;;;40.17;;
52554;SDS011;38455;52.710;6.502;2022-12-10T11:50:41;129.82;;;42.20;;
52554;SDS011;38455;52.710;6.502;2022-12-10T12:07:29;116.50;;;39.35;;
52554;SDS011;38455;52.710;6.502;2022-12-10T12:20:57;113.75;;;39.50;;
52554;SDS011;38455;52.710;6.502;2022-12-10T12:23:29;119.95;;;41.08;;
52554;SDS011;38455;52.710;6.502;2022-12-10T12:26:06;118.50;;;41.13;;
52554;SDS011;38455;52.710;6.502;2022-12-10T12:28:42;114.88;;;40.22;;
52554;SDS011;38455;52.710;6.502;2022-12-10T12:31:23;109.75;;;40.60;;
52554;SDS011;38455;52.710;6.502;2022-12-10T12:36:45;117.53;;;40.95;;
52554;SDS011;38455;52.710;6.502;2022-12-10T12:39:17;118.05;;;39.45;;
52554;SDS011;38455;52.710;6.502;2022-12-10T12:42:01;124.13;;;43.00;;
52554;SDS011;38455;52.710;6.502;2022-12-10T12:47:28;110.50;;;41.30;;
52554;SDS011;38455;52.710;6.502;2022-12-10T12:50:15;116.57;;;40.42;;
52554;SDS011;38455;52.710;6.502;2022-12-10T12:53:14;113.43;;;43.30;;
52554;SDS011;38455;52.710;6.502;2022-12-10T12:55:48;122.55;;;43.38;;
52554;SDS011;38455;52.710;6.502;2022-12-10T13:01:21;132.18;;;44.20;;
52554;SDS011;38455;52.710;6.502;2022-12-10T13:03:50;128.40;;;41.08;;
52554;SDS011;38455;52.710;6.502;2022-12-10T13:08:45;111.10;;;42.40;;
52554;SDS011;38455;52.710;6.502;2022-12-10T13:11:27;116.43;;;40.20;;
52554;SDS011;38455;52.710;6.502;2022-12-10T13:29:45;129.00;;;40.67;;
52554;SDS011;38455;52.710;6.502;2022-12-10T13:32:22;113.90;;;38.90;;
52554;SDS011;38455;52.710;6.502;2022-12-10T13:48:50;103.75;;;37.85;;
52554;SDS011;38455;52.710;6.502;2022-12-10T13:59:49;96.15;;;34.85;;
52554;SDS011;38455;52.710;6.502;2022-12-10T14:08:05;93.68;;;32.63;;
52554;SDS011;38455;52.710;6.502;2022-12-10T14:10:38;96.03;;;34.88;;
52554;SDS011;38455;52.710;6.502;2022-12-10T14:13:06;99.60;;;37.00;;
52554;SDS011;38455;52.710;6.502;2022-12-10T14:15:33;107.28;;;36.97;;
52554;SDS011;38455;52.710;6.502;2022-12-10T14:18:04;105.38;;;36.67;;
52554;SDS011;38455;52.710;6.502;2022-12-10T14:20:45;102.90;;;37.65;;
52554;SDS011;38455;52.710;6.502;2022-12-10T14:25:58;95.80;;;33.97;;
52554;SDS011;38455;52.710;6.502;2022-12-10T14:28:29;118.13;;;38.30;;
52554;SDS011;38455;52.710;6.502;2022-12-10T14:30:58;103.07;;;36.30;;
52554;SDS011;38455;52.710;6.502;2022-12-10T14:33:24;103.00;;;35.38;;
52554;SDS011;38455;52.710;6.502;2022-12-10T14:35:51;105.78;;;37.00;;
52554;SDS011;38455;52.710;6.502;2022-12-10T14:38:23;103.95;;;38.78;;
52554;SDS011;38455;52.710;6.502;2022-12-10T14:40:55;97.75;;;35.67;;
52554;SDS011;38455;52.710;6.502;2022-12-10T14:43:21;96.57;;;36.47;;
52554;SDS011;38455;52.710;6.502;2022-12-10T14:46:00;105.57;;;34.85;;
52554;SDS011;38455;52.710;6.502;2022-12-10T14:48:28;92.03;;;33.67;;
52554;SDS011;38455;52.710;6.502;2022-12-10T14:50:56;107.40;;;35.85;;
52554;SDS011;38455;52.710;6.502;2022-12-10T14:53:28;101.90;;;34.70;;
52554;SDS011;38455;52.710;6.502;2022-12-10T14:55:55;96.25;;;34.53;;
52554;SDS011;38455;52.710;6.502;2022-12-10T14:58:32;97.43;;;34.53;;
52554;SDS011;38455;52.710;6.502;2022-12-10T15:01:01;102.25;;;33.50;;
52554;SDS011;38455;52.710;6.502;2022-12-10T15:03:28;97.13;;;35.28;;
52554;SDS011;38455;52.710;6.502;2022-12-10T15:05:58;89.40;;;31.83;;
52554;SDS011;38455;52.710;6.502;2022-12-10T15:08:27;92.43;;;33.53;;
52554;SDS011;38455;52.710;6.502;2022-12-10T15:10:57;101.55;;;34.92;;
52554;SDS011;38455;52.710;6.502;2022-12-10T15:15:53;89.20;;;32.40;;
52554;SDS011;38455;52.710;6.502;2022-12-10T15:18:20;92.53;;;33.15;;
52554;SDS011;38455;52.710;6.502;2022-12-10T15:21:03;99.47;;;35.42;;
52554;SDS011;38455;52.710;6.502;2022-12-10T15:23:39;92.75;;;33.90;;
52554;SDS011;38455;52.710;6.502;2022-12-10T15:26:22;103.68;;;32.90;;
52554;SDS011;38455;52.710;6.502;2022-12-10T15:28:50;95.13;;;34.00;;
52554;SDS011;38455;52.710;6.502;2022-12-10T15:33:55;88.35;;;29.77;;
52554;SDS011;38455;52.710;6.502;2022-12-10T15:36:28;93.32;;;32.58;;
52554;SDS011;38455;52.710;6.502;2022-12-10T15:39:02;100.18;;;32.42;;
52554;SDS011;38455;52.710;6.502;2022-12-10T15:41:47;95.75;;;33.13;;
52554;SDS011;38455;52.710;6.502;2022-12-10T15:47:04;103.28;;;32.67;;
52554;SDS011;38455;52.710;6.502;2022-12-10T15:49:37;94.82;;;31.95;;
52554;SDS011;38455;52.710;6.502;2022-12-10T15:52:02;98.22;;;33.38;;
52554;SDS011;38455;52.710;6.502;2022-12-10T15:54:32;102.32;;;34.40;;
52554;SDS011;38455;52.710;6.502;2022-12-10T15:57:01;109.47;;;33.35;;
52554;SDS011;38455;52.710;6.502;2022-12-10T15:59:45;104.50;;;32.30;;
52554;SDS011;38455;52.710;6.502;2022-12-10T16:02:26;104.85;;;31.52;;
52554;SDS011;38455;52.710;6.502;2022-12-10T16:05:02;108.55;;;34.97;;
52554;SDS011;38455;52.710;6.502;2022-12-10T16:07:37;112.63;;;35.88;;
52554;SDS011;38455;52.710;6.502;2022-12-10T16:10:03;92.25;;;31.17;;
52554;SDS011;38455;52.710;6.502;2022-12-10T16:12:29;109.65;;;33.08;;
52554;SDS011;38455;52.710;6.502;2022-12-10T16:14:58;103.65;;;33.03;;
52554;SDS011;38455;52.710;6.502;2022-12-10T16:17:27;96.65;;;30.80;;
52554;SDS011;38455;52.710;6.502;2022-12-10T16:19:57;91.25;;;29.45;;
52554;SDS011;38455;52.710;6.502;2022-12-10T16:22:24;95.40;;;31.25;;
52554;SDS011;38455;52.710;6.502;2022-12-10T16:24:50;91.20;;;29.75;;
52554;SDS011;38455;52.710;6.502;2022-12-10T16:27:16;84.20;;;29.80;;
52554;SDS011;38455;52.710;6.502;2022-12-10T16:29:42;84.13;;;27.88;;
52554;SDS011;38455;52.710;6.502;2022-12-10T16:32:11;97.00;;;31.13;;
52554;SDS011;38455;52.710;6.502;2022-12-10T16:34:38;99.57;;;31.80;;
52554;SDS011;38455;52.710;6.502;2022-12-10T16:37:04;94.10;;;32.30;;
52554;SDS011;38455;52.710;6.502;2022-12-10T16:39:31;99.72;;;31.00;;
52554;SDS011;38455;52.710;6.502;2022-12-10T16:41:57;103.05;;;32.03;;
52554;SDS011;38455;52.710;6.502;2022-12-10T16:44:22;105.72;;;32.72;;
52554;SDS011;38455;52.710;6.502;2022-12-10T16:46:48;107.13;;;32.78;;
52554;SDS011;38455;52.710;6.502;2022-12-10T16:49:13;100.97;;;31.98;;
52554;SDS011;38455;52.710;6.502;2022-12-10T16:51:39;100.50;;;32.03;;
52554;SDS011;38455;52.710;6.502;2022-12-10T16:54:08;108.03;;;30.77;;
52554;SDS011;38455;52.710;6.502;2022-12-10T16:56:38;121.05;;;34.97;;
52554;SDS011;38455;52.710;6.502;2022-12-10T16:59:04;121.55;;;34.50;;
52554;SDS011;38455;52.710;6.502;2022-12-10T17:01:30;127.25;;;35.28;;
52554;SDS011;38455;52.710;6.502;2022-12-10T17:03:56;111.65;;;31.90;;